EFSI/SJY METAR and TAF weather

Enter ICAO airport designator
Station Type Date Time Source
EFSI METAR 2022/01/26 08:50 UTC NOAA

EFSI 260850Z AUTO 17008KT 5000 -SN BKN006 OVC027 M02/M03 Q1004


Station Type Date Time Source
EFSI Decoded METAR 2022/01/26 08:50 UTC NOAA

Seinajoki-Ilmajok, Finland (EFSI) 62-41-37N 022-49-55E
Jan 26, 2022 - 03:50 AM EST / 2022.01.26 0850 UTC
Wind: from the S (170 degrees) at 9 MPH (8 KT):0
Visibility: 3 mile(s):0
Sky conditions: overcast
Weather: light snow
Temperature: 28 F (-2 C)
Windchill: 19 F (-7 C):1
Dew Point: 26 F (-3 C)
Relative Humidity: 92%
Pressure (altimeter): 29.65 in. Hg (1004 hPa)
ob: EFSI 260850Z AUTO 17008KT 5000 -SN BKN006 OVC027 M02/M03 Q1004
cycle: 9

Station Type Date Time Source
EFSI TAF 2012/03/06 09:42 UTC NOAA

TAF EFSI 060830Z 0609/0621 12003KT CAVOK

Example: see airport list